Data for 08/16/2015

Time Sea-Level Adjusted Pressure Absolute Pressure Temperature Relative Humidity Dew Point   
(mb) (inHg) (mb) (inHg) (C) (F) (%) (C) (F)
00:05 1023 30.21 852 25.16 15.2 59.3 48 4.3 39.7
00:10 1023 30.21 852 25.16 15.1 59.2 48 4.2 39.6
00:15 1023 30.21 852 25.16 15.1 59.2 48 4.4 39.8
00:20 1023 30.21 852 25.16 15 59 49 4.3 39.8
00:25 1023 30.21 852 25.16 14.9 58.9 49 4.3 39.7
00:30 1023 30.21 852 25.16 14.9 58.9 49 4.3 39.8
00:35 1023 30.21 852 25.16 14.9 58.8 49 4.4 39.9
00:40 1023 30.21 852 25.16 14.8 58.6 50 4.5 40.1
00:45 1023 30.21 852 25.16 14.7 58.5 50 4.5 40
00:50 1023 30.21 852 25.16 14.7 58.4 51 4.6 40.3
00:55 1023 30.21 852 25.16 14.5 58.1 51 4.6 40.2
01:00 1023 30.21 852 25.16 14.4 58 52 4.7 40.5
01:05 1023 30.21 852 25.16 14.3 57.8 52 4.7 40.4
01:10 1023 30.21 852 25.16 14.2 57.6 52 4.7 40.5
01:15 1023 30.21 852 25.16 14.1 57.5 53 4.8 40.6
01:20 1023 30.21 852 25.16 14.1 57.3 53 4.8 40.6
01:25 1023 30.21 852 25.16 14 57.2 53 4.8 40.6
01:30 1023 30.21 852 25.16 14 57.2 54 4.8 40.6
01:35 1023 30.21 852 25.16 13.9 57 54 4.8 40.7
01:40 1023 30.21 852 25.16 13.9 57 54 4.9 40.7
01:45 1023 30.21 852 25.16 13.9 56.9 54 4.9 40.8
01:50 1023 30.21 852 25.16 13.8 56.8 55 4.9 40.9
01:55 1023 30.21 852 25.16 13.7 56.7 55 4.9 40.8
02:00 1023 30.21 852 25.16 13.7 56.6 55 5 40.9
02:05 1023 30.21 852 25.16 13.6 56.4 56 5 41.1
02:10 1023 30.21 852 25.16 13.5 56.2 56 5 41.1
02:15 1023 30.21 852 25.16 13.4 56.1 57 5 41
02:20 1023 30.21 852 25.16 13.4 56.1 57 5.1 41.2
02:25 1023 30.21 852 25.16 13.3 56 57 5.1 41.2
02:30 1023 30.21 852 25.16 13.3 55.9 58 5.2 41.4
02:35 1023 30.21 852 25.16 13.2 55.7 58 5.2 41.4
02:40 1023 30.21 852 25.16 13.1 55.6 58 5.2 41.4
02:45 1023 30.21 852 25.16 13.1 55.7 59 5.3 41.5
02:50 1023 30.21 852 25.16 13.1 55.6 59 5.3 41.6
02:55 1023 30.21 852 25.16 13 55.3 60 5.3 41.6
03:00 1023 30.21 852 25.16 12.9 55.3 60 5.4 41.7
03:05 1023 30.21 852 25.16 12.9 55.2 60 5.4 41.6
03:10 1023 30.21 852 25.16 12.9 55.2 60 5.4 41.7
03:15 1023 30.21 852 25.16 12.8 55.1 60 5.4 41.7
03:20 1023 30.21 852 25.16 12.8 55 60 5.4 41.7
03:25 1023 30.21 852 25.16 12.7 54.8 61 5.5 41.9
03:30 1023 30.21 852 25.16 12.6 54.6 62 5.5 41.9
03:35 1023 30.21 852 25.16 12.4 54.4 62 5.4 41.8
03:40 1023 30.21 852 25.16 12.4 54.3 62 5.4 41.8
03:45 1023 30.21 853 25.19 12.4 54.3 63 5.5 41.9
03:50 1023 30.21 853 25.19 12.3 54.1 63 5.5 41.9
03:55 1023 30.21 853 25.19 12.2 54 63 5.5 41.9
04:00 1023 30.21 852 25.16 12.2 53.9 64 5.5 41.9
04:05 1023 30.21 852 25.16 12.1 53.8 64 5.5 42
04:10 1023 30.21 852 25.16 12.1 53.7 64 5.5 41.9
04:15 1023 30.21 852 25.16 12 53.6 65 5.6 42.1
04:20 1023 30.21 852 25.16 11.9 53.4 65 5.6 42
04:25 1023 30.21 852 25.16 11.8 53.3 65 5.6 42
04:30 1023 30.21 852 25.16 11.7 53.1 66 5.6 42.1
04:35 1023 30.21 852 25.16 11.6 53 66 5.6 42.1
04:40 1023 30.21 852 25.16 11.6 52.9 66 5.6 42.1
04:45 1023 30.21 852 25.16 11.6 52.8 67 5.6 42.1
04:50 1023 30.21 852 25.16 11.6 52.9 67 5.6 42.1
04:55 1023 30.21 853 25.19 11.6 52.8 66 5.6 42.1
05:00 1023 30.21 853 25.19 11.7 53 66 5.6 42.2
05:05 1023 30.21 853 25.19 11.7 53 66 5.7 42.2
05:10 1023 30.21 853 25.19 11.7 53 66 5.7 42.2
05:15 1023 30.21 853 25.19 11.7 53 67 5.7 42.2
05:20 1023 30.21 853 25.19 11.6 52.9 67 5.7 42.2
05:25 1024 30.24 853 25.19 11.6 52.9 67 5.7 42.3
05:30 1024 30.24 853 25.19 11.6 52.8 67 5.7 42.3
05:35 1024 30.24 853 25.19 11.5 52.6 68 5.8 42.4
05:40 1024 30.24 853 25.19 11.4 52.5 68 5.7 42.3
05:45 1024 30.24 853 25.19 11.4 52.5 68 5.7 42.3
05:50 1024 30.24 853 25.19 11.4 52.6 68 5.7 42.3
05:55 1024 30.24 853 25.19 11.5 52.6 68 5.8 42.4
06:00 1024 30.24 853 25.19 11.4 52.6 68 5.8 42.4
06:05 1024 30.24 853 25.19 11.5 52.7 68 5.8 42.4
06:10 1024 30.24 853 25.19 11.5 52.7 68 5.8 42.4
06:15 1024 30.24 853 25.19 11.5 52.7 67 5.8 42.4
06:20 1024 30.24 853 25.19 11.5 52.8 68 5.8 42.5
06:25 1024 30.24 853 25.19 11.6 52.8 68 5.8 42.5
06:30 1024 30.24 853 25.19 11.7 53 67 5.8 42.4
06:35 1024 30.24 853 25.19 11.8 53.2 67 5.8 42.5
06:40 1024 30.24 853 25.19 11.8 53.3 67 5.9 42.6
06:45 1024 30.24 853 25.19 12 53.5 66 5.9 42.6
06:50 1024 30.24 854 25.22 12 53.6 66 6 42.7
06:55 1025 30.27 854 25.22 12 53.6 66 6 42.7
07:00 1025 30.27 854 25.22 12 53.6 66 5.9 42.7
07:05 1025 30.27 854 25.22 12.1 53.7 66 6 42.9
07:10 1025 30.27 854 25.22 12.3 54.1 65 6 42.7
07:15 1025 30.27 854 25.22 12.6 54.7 64 6 42.8
07:20 1025 30.27 854 25.22 12.7 54.8 64 6.1 43
07:25 1025 30.27 854 25.22 12.7 54.8 64 6.1 42.9
07:30 1025 30.27 854 25.22 13 55.3 63 6 42.9
07:35 1025 30.27 854 25.22 13.1 55.6 63 6.2 43.2
07:40 1025 30.27 854 25.22 13.1 55.6 63 6.3 43.3
07:45 1025 30.27 854 25.22 13.3 55.9 62 6.1 43
07:50 1025 30.27 854 25.22 13.3 56 61 6.1 43
07:55 1025 30.27 854 25.22 13.7 56.7 60 6.2 43.1
08:00 1025 30.27 854 25.22 14 57.2 57 5.8 42.4
08:05 1025 30.27 854 25.22 14.1 57.3 58 6.1 43
08:10 1025 30.27 854 25.22 14.2 57.6 58 6.2 43.1
08:15 1025 30.27 854 25.22 15 59 54 5.8 42.4
08:20 1025 30.27 854 25.22 14.8 58.6 57 6.5 43.8
08:25 1025 30.27 854 25.22 14.8 58.7 55 5.8 42.5
08:30 1025 30.27 854 25.22 14.4 57.9 57 6.1 43
08:35 1025 30.27 854 25.22 14.7 58.4 58 6.5 43.7
08:40 1025 30.27 854 25.22 14.9 58.8 54 5.8 42.5
08:45 1025 30.27 854 25.22 15.6 60 54 6.3 43.4
08:50 1025 30.27 854 25.22 15.8 60.4 52 6.1 43
08:55 1025 30.27 854 25.22 16.2 61.2 50 5.8 42.5
09:00 1025 30.27 854 25.22 16.2 61.1 52 6.3 43.3
09:05 1025 30.27 854 25.22 16.1 60.9 52 6.2 43.1
09:10 1025 30.27 854 25.22 16.1 60.9 53 6.6 43.8
09:15 1025 30.27 854 25.22 15.7 60.2 51 5.7 42.2
09:20 1025 30.27 854 25.22 16.2 61.1 51 6.1 43
09:25 1025 30.27 854 25.22 16 60.8 53 6.6 43.8
09:30 1025 30.27 854 25.22 16.2 61.2 50 6 42.7
09:35 1025 30.27 854 25.22 17.1 62.7 48 6.1 42.9
09:40 1025 30.27 854 25.22 15.9 60.6 53 6.5 43.8
09:45 1025 30.27 854 25.22 16.4 61.4 50 5.9 42.6
09:50 1025 30.27 854 25.22 16.1 61.1 51 6 42.7
09:55 1025 30.27 854 25.22 16.9 62.4 48 6 42.7
10:00 1025 30.27 854 25.22 17.5 63.6 47 6.2 43.1
10:05 1025 30.27 854 25.22 17.5 63.4 47 6.2 43.2
10:10 1025 30.27 854 25.22 17.9 64.3 47 6.5 43.7
10:15 1025 30.27 854 25.22 17.3 63.1 50 6.8 44.2
10:20 1024 30.24 854 25.22 16.8 62.2 50 6.4 43.4
10:25 1024 30.24 854 25.22 17.4 63.2 48 6.3 43.4
10:30 1024 30.24 854 25.22 17 62.5 49 6.2 43.1
10:35 1024 30.24 854 25.22 17.4 63.2 47 6 42.9
10:40 1024 30.24 854 25.22 18 64.3 45 6 42.8
10:45 1024 30.24 854 25.22 18.5 65.4 45 6.6 43.8
10:50 1024 30.24 853 25.19 18.5 65.2 45 6.5 43.6
10:55 1024 30.24 854 25.22 18.2 64.7 47 6.7 44.1
11:00 1024 30.24 854 25.22 18.9 66 42 5.8 42.5
11:05 1024 30.24 853 25.19 19.5 67.1 41 6.1 43
11:10 1024 30.24 853 25.19 19.4 67 43 6.7 44
11:15 1024 30.24 853 25.19 19.9 67.8 41 6.5 43.7
11:20 1024 30.24 853 25.19 19.4 66.8 43 6.4 43.6
11:25 1024 30.24 853 25.19 20.2 68.3 37 5.2 41.4
11:30 1024 30.24 853 25.19 20.1 68.2 38 5.3 41.6
11:35 1024 30.24 853 25.19 20.9 69.6 38 6.1 42.9
11:40 1024 30.24 853 25.19 20.5 68.8 40 6.6 43.8
11:45 1024 30.24 853 25.19 20.2 68.4 38 5.7 42.2
11:50 1024 30.24 853 25.19 19.5 67.1 37 4.7 40.5
11:55 1024 30.24 853 25.19 20.3 68.6 39 5.9 42.6
12:00 1024 30.24 853 25.19 20.6 69.1 37 5.6 42.1
12:05 1024 30.24 853 25.19 21.4 70.4 33 4.6 40.4
12:10 1023 30.21 853 25.19 21.9 71.5 32 4.5 40.1
12:15 1023 30.21 853 25.19 22 71.6 33 5.3 41.5
12:20 1023 30.21 853 25.19 21.3 70.4 33 4.8 40.6
12:25 1023 30.21 853 25.19 21.2 70.2 34 4.9 40.9
12:30 1023 30.21 853 25.19 20.7 69.3 35 4.9 40.8
12:35 1023 30.21 852 25.16 21.7 71 32 4.5 40.1
12:40 1023 30.21 852 25.16 20.7 69.3 31 3.1 37.7
12:45 1023 30.21 852 25.16 20.2 68.4 33 3.4 38.2
12:50 1023 30.21 852 25.16 21.1 70 32 4.1 39.5
12:55 1023 30.21 852 25.16 21.6 70.9 31 3.8 38.9
13:00 1023 30.21 852 25.16 22 71.7 30 3.9 38.9
13:05 1023 30.21 852 25.16 22.8 73 30 4.4 39.9
13:10 1023 30.21 852 25.16 22.7 72.8 29 3.9 39.1
13:15 1023 30.21 852 25.16 22.8 73 28 3.6 38.6
13:20 1023 30.21 852 25.16 22.9 73.1 27 2.9 37.1
13:25 1023 30.21 852 25.16 23 73.3 27 3.3 38
13:30 1023 30.21 852 25.16 23 73.4 28 3.7 38.7
13:35 1023 30.21 852 25.16 23.2 73.7 27 3.6 38.4
13:40 1023 30.21 852 25.16 23.3 73.9 28 4.2 39.5
13:45 1023 30.21 852 25.16 23.5 74.4 27 3.9 39
13:50 1023 30.21 852 25.16 22.9 73.2 29 3.9 39.1
13:55 1023 30.21 852 25.16 23.4 74.1 27 3.4 38.1
14:00 1023 30.21 852 25.16 23.8 74.8 27 3.9 39
14:05 1023 30.21 852 25.16 23.2 73.7 27 3.6 38.5
14:10 1022 30.18 852 25.16 23.3 73.9 27 3.3 38
14:15 1022 30.18 852 25.16 22.9 73.2 27 2.9 37.2
14:20 1022 30.18 852 25.16 23 73.4 28 3.8 38.9
14:25 1022 30.18 852 25.16 22.4 72.4 27 2.8 37
14:30 1022 30.18 852 25.16 21.7 71 29 3.2 37.8
14:35 1022 30.18 852 25.16 22 71.7 28 2.6 36.7
14:40 1022 30.18 852 25.16 23.2 73.7 24 1.8 35.2
14:45 1022 30.18 851 25.13 24.2 75.6 22 1.1 34.1
14:50 1022 30.18 851 25.13 23.1 73.5 21 -0.4 31.4
14:55 1022 30.18 851 25.13 23.7 74.7 20 -0.3 31.4
15:00 1022 30.18 851 25.13 24.6 76.2 19 -0.4 31.3
15:05 1022 30.18 851 25.13 24.7 76.4 21 1 33.8
15:10 1022 30.18 851 25.13 24.3 75.8 21 1.2 34.1
15:15 1022 30.18 851 25.13 24.2 75.5 20 0.1 32.2
15:20 1022 30.18 851 25.13 24.1 75.4 19 -0.4 31.3
15:25 1022 30.18 851 25.13 24.3 75.8 20 0.2 32.3
15:30 1022 30.18 851 25.13 24.4 76 20 0.3 32.5
15:35 1022 30.18 851 25.13 23.5 74.2 22 0.8 33.5
15:40 1022 30.18 851 25.13 22.9 73.2 22 0.3 32.6
15:45 1022 30.18 851 25.13 23.7 74.6 21 0.4 32.8
15:50 1021 30.15 851 25.13 24.4 75.9 21 0.8 33.4
15:55 1021 30.15 851 25.13 24.6 76.3 20 0.1 32.3
16:00 1021 30.15 850 25.1 24.9 76.8 21 1.1 33.9
16:05 1021 30.15 850 25.1 24.7 76.5 21 0.9 33.6
16:10 1021 30.15 850 25.1 24.7 76.4 21 1.1 34.1
16:15 1021 30.15 850 25.1 25.2 77.3 19 0.3 32.5
16:20 1021 30.15 850 25.1 24.5 76.1 20 0.1 32.2
16:25 1021 30.15 850 25.1 24.7 76.4 19 0 32
16:30 1021 30.15 850 25.1 24.7 76.5 22 1.8 35.3
16:35 1021 30.15 850 25.1 24.1 75.4 23 1.8 35.2
16:40 1021 30.15 850 25.1 23.8 74.9 22 1.1 34
16:45 1021 30.15 850 25.1 23.8 74.8 22 0.9 33.5
16:50 1021 30.15 850 25.1 23.4 74.2 23 1.2 34.2
16:55 1021 30.15 850 25.1 22.7 72.9 24 1.2 34.2
17:00 1021 30.15 850 25.1 22.7 72.9 24 1.2 34.2
17:05 1021 30.15 850 25.1 22.5 72.5 23 0.5 33
17:10 1021 30.15 850 25.1 23 73.4 23 0.9 33.6
17:15 1021 30.15 850 25.1 22.9 73.3 24 1.5 34.7
17:20 1021 30.15 850 25.1 22.7 72.8 23 0.6 33
17:25 1021 30.15 850 25.1 22.5 72.4 23 0.8 33.4
17:30 1021 30.15 850 25.1 22.3 72.1 23 0.1 32.2
17:35 1021 30.15 850 25.1 22.2 71.9 24 0.6 33.2
17:40 1021 30.15 850 25.1 22.3 72.1 24 0.9 33.7
17:45 1021 30.15 850 25.1 22.3 72.2 24 0.7 33.3
17:50 1021 30.15 850 25.1 22.3 72.1 24 0.9 33.7
17:55 1021 30.15 850 25.1 22.1 71.7 25 1.1 33.9
18:00 1021 30.15 850 25.1 22 71.5 24 0.9 33.6
18:05 1021 30.15 850 25.1 21.9 71.4 24 0.7 33.2
18:10 1021 30.15 850 25.1 21.9 71.5 25 1 33.8
18:15 1021 30.15 850 25.1 21.9 71.5 24 0.7 33.3
18:20 1021 30.15 850 25.1 21.8 71.2 25 1.1 34
18:25 1021 30.15 850 25.1 21.7 71.1 25 1.3 34.3
18:30 1021 30.15 850 25.1 21.7 71 25 0.9 33.6
18:35 1021 30.15 850 25.1 21.5 70.7 24 0.4 32.8
18:40 1021 30.15 850 25.1 21.4 70.6 25 1 33.8
18:45 1021 30.15 850 25.1 20.9 69.5 33 4.1 39.3
18:50 1021 30.15 850 25.1 20 68 37 5.2 41.3
18:55 1021 30.15 850 25.1 19.4 66.9 40 5.5 41.9
19:00 1021 30.15 850 25.1 18.9 66 42 5.7 42.3
19:05 1021 30.15 850 25.1 18.6 65.4 43 5.9 42.6
19:10 1021 30.15 851 25.13 18.3 64.9 44 6 42.9
19:15 1021 30.15 851 25.13 18 64.4 46 6.2 43.1
19:20 1021 30.15 851 25.13 17.8 64 46 6.1 43.1
19:25 1021 30.15 851 25.13 17.6 63.7 47 6.2 43.1
19:30 1021 30.15 851 25.13 17.4 63.4 48 6.3 43.4
19:35 1022 30.18 851 25.13 17.3 63.2 48 6.3 43.4
19:40 1022 30.18 851 25.13 17.2 63 49 6.4 43.5
19:45 1022 30.18 851 25.13 17.1 62.7 49 6.4 43.6
19:50 1022 30.18 851 25.13 16.9 62.4 50 6.5 43.7
19:55 1022 30.18 851 25.13 16.8 62.2 51 6.6 43.9
20:00 1022 30.18 851 25.13 16.6 61.9 51 6.6 43.9
20:05 1022 30.18 851 25.13 16.5 61.7 52 6.6 44
20:10 1022 30.18 851 25.13 16.4 61.4 53 6.8 44.2
20:15 1022 30.18 851 25.13 16.2 61.2 53 6.8 44.2
20:20 1022 30.18 851 25.13 16.1 61 53 6.8 44.2
20:25 1022 30.18 851 25.13 16 60.8 54 6.8 44.3
20:30 1022 30.18 852 25.16 15.9 60.6 55 6.8 44.3
20:35 1022 30.18 852 25.16 15.7 60.3 55 6.9 44.4
20:40 1022 30.18 852 25.16 15.6 60.1 56 6.9 44.4
20:45 1023 30.21 852 25.16 15.5 59.9 56 6.8 44.2
20:50 1023 30.21 852 25.16 15.5 59.8 56 6.8 44.3
20:55 1023 30.21 852 25.16 15.3 59.6 57 6.9 44.4
21:00 1023 30.21 852 25.16 15.2 59.4 57 6.8 44.3
21:05 1023 30.21 852 25.16 15.2 59.3 57 6.8 44.3
21:10 1023 30.21 852 25.16 15 59 58 6.9 44.4
21:15 1023 30.21 852 25.16 14.9 58.7 58 6.8 44.3
21:20 1023 30.21 852 25.16 14.8 58.6 58 6.8 44.2
21:25 1023 30.21 852 25.16 14.7 58.5 59 6.8 44.2
21:30 1023 30.21 852 25.16 14.6 58.4 59 6.8 44.2
21:35 1023 30.21 852 25.16 14.6 58.3 59 6.8 44.2
21:40 1023 30.21 852 25.16 14.6 58.2 59 6.8 44.3
21:45 1023 30.21 852 25.16 14.5 58 59 6.7 44.1
21:50 1023 30.21 852 25.16 14.4 58 60 6.8 44.2
21:55 1023 30.21 852 25.16 14.3 57.8 60 6.8 44.2
22:00 1023 30.21 852 25.16 14.3 57.7 60 6.8 44.2
22:05 1023 30.21 852 25.16 14.2 57.6 61 6.8 44.2
22:10 1023 30.21 852 25.16 14.1 57.4 61 6.8 44.2
22:15 1023 30.21 852 25.16 14.1 57.4 61 6.7 44.1
22:20 1023 30.21 852 25.16 14.1 57.3 61 6.7 44.1
22:25 1023 30.21 852 25.16 14.1 57.3 61 6.7 44
22:30 1023 30.21 852 25.16 14.1 57.3 61 6.6 44
22:35 1023 30.21 852 25.16 14.1 57.3 61 6.7 44
22:40 1023 30.21 852 25.16 14 57.3 61 6.6 44
22:45 1023 30.21 852 25.16 14 57.3 60 6.6 43.8
22:50 1023 30.21 852 25.16 14.1 57.3 60 6.6 43.8
22:55 1022 30.18 852 25.16 14 57.3 60 6.6 43.8
23:00 1023 30.21 852 25.16 14 57.2 60 6.5 43.8
23:05 1023 30.21 852 25.16 14.1 57.3 60 6.4 43.6
23:10 1022 30.18 852 25.16 14.1 57.3 60 6.5 43.6
23:15 1023 30.21 852 25.16 14.1 57.3 60 6.4 43.6
23:20 1023 30.21 852 25.16 14.1 57.3 60 6.4 43.5
23:25 1022 30.18 852 25.16 14 57.2 60 6.4 43.6
23:30 1022 30.18 852 25.16 14 57.2 60 6.4 43.5
23:35 1022 30.18 852 25.16 14 57.1 60 6.3 43.4
23:40 1022 30.18 852 25.16 14 57.1 60 6.3 43.4
23:45 1022 30.18 852 25.16 14 57.2 60 6.4 43.4
23:50 1022 30.18 852 25.16 14 57.2 60 6.4 43.5
23:55 1022 30.18 852 25.16 14 57.1 60 6.4 43.5
24:00 1022 30.18 852 25.16 13.9 57 60 6.3 43.3